Time;durP1;ratioP1;P1;durP2;ratioP2;P2;SDS_P1;SDS_P2;PMS_P1;PMS_P2;Temp;Humidity;BMP_temperature;BMP_pressure;BME280_temperature;BME280_humidity;BME280_pressure;Samples;Min_cycle;Max_cycle;Signal;HPM_P1;HPM_P2
2023/01/13 00:00:12;;;;;;;1999.90;999.90;;;10.90;99.90;;;;;;5029828;28;20473;-68
2023/01/13 00:02:39;;;;;;;1999.90;999.90;;;10.90;99.90;;;;;;5035360;28;20446;-68
2023/01/13 00:05:06;;;;;;;1999.90;999.90;;;10.90;99.90;;;;;;5035568;28;20539;-68
2023/01/13 00:07:33;;;;;;;1999.90;999.90;;;10.90;99.90;;;;;;5041740;28;20435;-67
2023/01/13 00:10:00;;;;;;;1999.90;999.90;;;10.90;99.90;;;;;;5035243;28;21132;-68
2023/01/13 00:12:27;;;;;;;1999.90;999.90;;;10.80;99.90;;;;;;5028651;28;22039;-68
2023/01/13 00:14:54;;;;;;;1999.90;999.90;;;10.90;99.90;;;;;;5043632;28;20488;-68
2023/01/13 00:17:22;;;;;;;1999.90;999.90;;;10.90;99.90;;;;;;5030203;28;20461;-67
2023/01/13 00:19:49;;;;;;;1999.90;999.90;;;10.90;99.90;;;;;;5034259;28;21062;-66
2023/01/13 00:22:16;;;;;;;1999.90;999.90;;;10.90;99.90;;;;;;5042670;28;20463;-66
2023/01/13 00:24:43;;;;;;;1999.90;999.90;;;10.90;99.90;;;;;;5027931;28;20449;-67
2023/01/13 00:27:10;;;;;;;1999.90;999.90;;;10.80;99.90;;;;;;5027273;28;20872;-69
2023/01/13 00:29:37;;;;;;;1999.90;999.90;;;10.70;99.90;;;;;;5031162;28;20469;-68
2023/01/13 00:32:04;;;;;;;1999.90;999.90;;;10.60;99.90;;;;;;5033095;28;20490;-68
2023/01/13 00:34:32;;;;;;;1999.90;999.90;;;10.60;99.90;;;;;;5041222;28;20448;-68
2023/01/13 00:36:59;;;;;;;1999.90;999.90;;;10.60;99.90;;;;;;5030726;28;20468;-68
2023/01/13 00:39:26;;;;;;;1999.90;999.90;;;10.50;99.90;;;;;;5034415;28;20468;-67
2023/01/13 00:44:37;;;;;;;1999.90;999.90;;;10.60;99.90;;;;;;5036976;28;20447;-67
2023/01/13 00:47:04;;;;;;;1999.90;999.90;;;10.60;99.90;;;;;;5042649;28;20440;-67
2023/01/13 00:49:32;;;;;;;1999.90;999.90;;;10.60;99.90;;;;;;5051118;28;20513;-67
2023/01/13 00:51:59;;;;;;;1999.90;999.90;;;10.70;99.90;;;;;;5051096;28;20524;-67
2023/01/13 00:54:26;;;;;;;1999.90;999.90;;;10.70;99.90;;;;;;5052916;28;20465;-68
2023/01/13 00:56:53;;;;;;;1999.90;999.90;;;10.80;99.90;;;;;;5052810;28;20480;-68
2023/01/13 00:59:20;;;;;;;1999.90;999.90;;;10.80;99.90;;;;;;5051822;28;20838;-68
2023/01/13 01:01:46;;;;;;;1999.90;999.90;;;10.80;99.90;;;;;;5052685;28;20455;-68
2023/01/13 01:04:13;;;;;;;1999.90;999.90;;;10.90;99.90;;;;;;5052386;28;20466;-67
2023/01/13 01:06:41;;;;;;;1999.90;999.90;;;10.80;99.90;;;;;;5046884;28;20457;-68
2023/01/13 01:09:11;;;;;;;1999.90;999.90;;;10.90;99.90;;;;;;5032117;28;20469;-68
2023/01/13 01:11:38;;;;;;;1999.90;999.90;;;10.90;99.90;;;;;;5032625;28;20445;-68
2023/01/13 01:14:05;;;;;;;1999.90;999.90;;;10.90;99.90;;;;;;5032778;28;20548;-67
2023/01/13 01:16:33;;;;;;;1999.90;999.90;;;11.00;99.90;;;;;;5032360;28;20480;-68
2023/01/13 01:19:01;;;;;;;1999.90;999.90;;;11.00;99.90;;;;;;5032119;28;20473;-69
2023/01/13 01:21:28;;;;;;;1999.90;999.90;;;11.00;99.90;;;;;;5032221;28;20536;-68
2023/01/13 01:23:59;;;;;;;1999.90;999.90;;;11.00;99.90;;;;;;5044827;28;20530;-67
2023/01/13 01:26:28;;;;;;;1999.90;999.90;;;11.00;99.90;;;;;;5051905;28;21183;-67
2023/01/13 01:28:55;;;;;;;1999.90;999.90;;;11.00;99.90;;;;;;5051436;28;20470;-68
2023/01/13 01:31:24;;;;;;;1999.90;999.90;;;11.00;99.90;;;;;;5051843;28;20440;-67
2023/01/13 01:33:51;;;;;;;1999.90;999.90;;;11.00;99.90;;;;;;5051837;28;20516;-67
2023/01/13 01:36:20;;;;;;;1999.90;999.90;;;11.10;99.90;;;;;;5051639;28;20475;-68
2023/01/13 01:38:48;;;;;;;1999.90;999.90;;;11.10;99.90;;;;;;5047334;28;20488;-68
2023/01/13 01:41:18;;;;;;;1999.90;999.90;;;11.00;99.90;;;;;;5031955;28;20511;-67
2023/01/13 01:43:58;;;;;;;1999.90;999.90;;;11.10;99.90;;;;;;5032235;28;20476;-67
2023/01/13 01:46:29;;;;;;;1999.90;999.90;;;11.00;99.90;;;;;;5031741;28;20432;-67
2023/01/13 01:49:00;;;;;;;1999.90;999.90;;;11.00;99.90;;;;;;5031389;28;20469;-68
2023/01/13 01:51:32;;;;;;;1999.90;999.90;;;11.00;99.90;;;;;;5030766;28;20445;-68
2023/01/13 01:54:02;;;;;;;1999.90;999.90;;;10.80;99.90;;;;;;5031865;28;20448;-66
2023/01/13 01:56:32;;;;;;;1999.90;999.90;;;10.60;99.90;;;;;;5041015;28;20486;-68
2023/01/13 01:58:59;;;;;;;1999.90;999.90;;;10.40;99.90;;;;;;5039414;28;20477;-68
2023/01/13 02:01:27;;;;;;;1999.90;999.90;;;10.40;99.90;;;;;;5042694;28;20490;-68
2023/01/13 02:03:59;;;;;;;1999.90;999.90;;;10.40;99.90;;;;;;5051242;28;20454;-68
2023/01/13 02:06:27;;;;;;;1999.90;999.90;;;10.40;99.90;;;;;;5051278;28;20454;-68
2023/01/13 02:08:54;;;;;;;1999.90;999.90;;;10.50;99.90;;;;;;5050650;28;20852;-68
2023/01/13 02:14:20;;;;;;;1999.90;999.90;;;10.60;99.90;;;;;;5047798;28;20524;-68
2023/01/13 02:16:56;;;;;;;1999.90;999.90;;;10.70;99.90;;;;;;5031302;28;20481;-68
2023/01/13 02:20:03;;;;;;;1999.90;999.90;;;10.80;99.90;;;;;;5030675;28;20471;-68
2023/01/13 02:22:52;;;;;;;1999.90;999.90;;;10.80;99.90;;;;;;5029783;28;20457;-67
2023/01/13 02:25:58;;;;;;;1999.90;999.90;;;10.90;99.90;;;;;;5025859;28;20449;-68
2023/01/13 02:31:40;;;;;;;1999.90;999.90;;;11.00;99.90;;;;;;5022443;28;20449;-68
2023/01/13 02:31:42;;;;;;;1999.90;999.90;;;10.90;99.90;;;;;;5024870;28;20429;-67
2023/01/13 02:34:11;;;;;;;1999.90;999.90;;;11.00;99.90;;;;;;5031163;28;20440;-67
2023/01/13 02:36:46;;;;;;;1999.90;999.90;;;11.10;99.90;;;;;;5030976;28;20496;-67
2023/01/13 02:39:18;;;;;;;1999.90;999.90;;;11.00;99.90;;;;;;5031056;28;20494;-68
2023/01/13 02:44:51;;;;;;;1999.90;999.90;;;11.00;99.90;;;;;;5031179;28;20428;-69
2023/01/13 02:47:21;;;;;;;1999.90;999.90;;;11.00;99.90;;;;;;5039527;28;20444;-68
2023/01/13 02:49:52;;;;;;;1999.90;999.90;;;11.00;99.90;;;;;;5049999;28;20930;-68
2023/01/13 02:52:25;;;;;;;1999.90;999.90;;;11.00;99.90;;;;;;5051050;28;20447;-68
2023/01/13 02:54:57;;;;;;;1999.90;999.90;;;11.00;99.90;;;;;;5051064;28;20467;-68
2023/01/13 02:57:26;;;;;;;1999.90;999.90;;;11.00;99.90;;;;;;5051123;28;20578;-68
2023/01/13 02:59:54;;;;;;;1999.90;999.90;;;11.10;99.90;;;;;;5050336;28;20460;-68
2023/01/13 03:02:24;;;;;;;1999.90;999.90;;;11.10;99.90;;;;;;5048722;28;20830;-68
2023/01/13 03:04:54;;;;;;;1999.90;999.90;;;11.10;99.90;;;;;;5030852;28;20845;-68
2023/01/13 03:07:52;;;;;;;1999.90;999.90;;;11.00;99.90;;;;;;5030924;28;20456;-68
2023/01/13 03:10:36;;;;;;;1999.90;999.90;;;11.00;99.90;;;;;;5024991;28;20483;-68
2023/01/13 03:13:13;;;;;;;1999.90;999.90;;;11.00;99.90;;;;;;5029613;28;20991;-67
2023/01/13 03:15:47;;;;;;;1999.90;999.90;;;11.00;99.90;;;;;;5029826;28;20437;-68
2023/01/13 03:18:24;;;;;;;1999.90;999.90;;;11.00;99.90;;;;;;5029778;28;20539;-68
2023/01/13 03:21:00;;;;;;;1999.90;999.90;;;11.00;99.90;;;;;;5027975;28;20461;-68
2023/01/13 03:23:33;;;;;;;1999.90;999.90;;;11.00;99.90;;;;;;5029985;28;20433;-67
2023/01/13 03:26:05;;;;;;;1999.90;999.90;;;11.00;99.90;;;;;;5029623;28;20453;-67
2023/01/13 03:28:37;;;;;;;1999.90;999.90;;;11.00;99.90;;;;;;5029819;28;20494;-67
2023/01/13 03:31:09;;;;;;;1999.90;999.90;;;11.10;99.90;;;;;;5029814;28;20451;-67
2023/01/13 03:33:44;;;;;;;1999.90;999.90;;;11.00;99.90;;;;;;5029847;28;20825;-68
2023/01/13 03:36:15;;;;;;;1999.90;999.90;;;11.00;99.90;;;;;;5036948;28;20479;-67
2023/01/13 03:38:46;;;;;;;1999.90;999.90;;;11.10;99.90;;;;;;5049589;28;20509;-68
2023/01/13 03:41:18;;;;;;;1999.90;999.90;;;11.10;99.90;;;;;;5049664;28;20456;-68
2023/01/13 03:46:44;;;;;;;1999.90;999.90;;;11.10;99.90;;;;;;5029894;28;20930;-68
2023/01/13 03:49:19;;;;;;;1999.90;999.90;;;11.00;99.90;;;;;;5029119;28;20977;-66
2023/01/13 03:51:49;;;;;;;1999.90;999.90;;;11.00;99.90;;;;;;5035316;28;20453;-67
2023/01/13 03:54:20;;;;;;;1999.90;999.90;;;11.00;99.90;;;;;;5049595;28;20483;-68
2023/01/13 03:56:51;;;;;;;1999.90;999.90;;;11.00;99.90;;;;;;5049518;28;20495;-68
2023/01/13 03:59:22;;;;;;;1999.90;999.90;;;10.90;99.90;;;;;;5048483;28;20874;-68
2023/01/13 04:01:54;;;;;;;1999.90;999.90;;;10.90;99.90;;;;;;5034985;28;20463;-68
2023/01/13 04:04:28;;;;;;;1999.90;999.90;;;10.90;99.90;;;;;;5047545;28;20456;-66
2023/01/13 04:07:00;;;;;;;1999.90;999.90;;;10.80;99.90;;;;;;5049167;28;20444;-68
2023/01/13 04:09:33;;;;;;;1999.90;999.90;;;10.90;99.90;;;;;;5048649;28;20480;-67
2023/01/13 04:12:07;;;;;;;1999.90;999.90;;;10.80;99.90;;;;;;5048955;28;20541;-68
2023/01/13 04:14:35;;;;;;;1999.90;999.90;;;10.80;99.90;;;;;;5043319;28;20453;-68
2023/01/13 04:17:02;;;;;;;1999.90;999.90;;;10.80;99.90;;;;;;5028648;28;20483;-68
2023/01/13 04:19:31;;;;;;;1999.90;999.90;;;10.70;99.90;;;;;;5028814;28;20926;-68
2023/01/13 04:21:58;;;;;;;1999.90;999.90;;;10.80;99.90;;;;;;5028239;28;20453;-68
2023/01/13 04:24:25;;;;;;;1999.90;999.90;;;10.80;99.90;;;;;;5028725;28;21038;-68
2023/01/13 04:26:52;;;;;;;1999.90;999.90;;;10.80;99.90;;;;;;5029209;28;20464;-68
2023/01/13 04:29:19;;;;;;;1999.90;999.90;;;10.90;99.90;;;;;;5028399;28;20465;-68
2023/01/13 04:31:46;;;;;;;1999.90;999.90;;;10.90;99.90;;;;;;5044623;28;20454;-68
2023/01/13 04:34:13;;;;;;;1999.90;999.90;;;10.90;99.90;;;;;;5048717;28;20440;-68
2023/01/13 04:36:41;;;;;;;1999.90;999.90;;;10.90;99.90;;;;;;5048475;28;20863;-68
2023/01/13 04:39:08;;;;;;;1999.90;999.90;;;11.00;99.90;;;;;;5048487;28;20464;-67
2023/01/13 04:44:15;;;;;;;1999.90;999.90;;;11.10;99.90;;;;;;5048503;28;20435;-67
2023/01/13 04:46:42;;;;;;;1999.90;999.90;;;11.00;99.90;;;;;;5046711;28;20452;-68
2023/01/13 04:49:09;;;;;;;1999.90;999.90;;;11.00;99.90;;;;;;5048198;28;20460;-67
2023/01/13 04:51:36;;;;;;;1999.90;999.90;;;10.90;99.90;;;;;;5048285;28;20436;-67
2023/01/13 04:54:04;;;;;;;1999.90;999.90;;;10.90;99.90;;;;;;5048626;28;20834;-68
2023/01/13 04:56:31;;;;;;;1999.90;999.90;;;10.90;99.90;;;;;;5048361;28;20908;-68
2023/01/13 04:58:58;;;;;;;1999.90;999.90;;;10.80;99.90;;;;;;5047120;28;20494;-67
2023/01/13 05:01:25;;;;;;;1999.90;999.90;;;10.80;99.90;;;;;;5048537;28;20440;-67
2023/01/13 05:03:52;;;;;;;1999.90;999.90;;;10.80;99.90;;;;;;5047961;28;20534;-67
2023/01/13 05:06:18;;;;;;;1999.90;999.90;;;10.80;99.90;;;;;;5048722;28;20451;-67
2023/01/13 05:08:45;;;;;;;1999.90;999.90;;;10.90;99.90;;;;;;5047996;28;20467;-68
2023/01/13 05:17:00;;;;;;;1999.90;999.90;;;10.90;99.90;;;;;;5007189;28;20511;-67
2023/01/13 05:19:27;;;;;;;1999.90;999.90;;;10.90;99.90;;;;;;5007072;28;20469;-65
2023/01/13 05:27:24;;;;;;;1999.90;999.90;;;10.90;99.90;;;;;;5014839;28;20445;-68
2023/01/13 05:29:51;;;;;;;1999.90;999.90;;;11.00;99.90;;;;;;5051526;28;20989;-69
2023/01/13 05:32:18;;;;;;;1999.90;999.90;;;11.00;99.90;;;;;;5051608;28;20479;-70
2023/01/13 05:34:44;;;;;;;1999.90;999.90;;;11.00;99.90;;;;;;5052083;28;20448;-69
2023/01/13 05:37:12;;;;;;;1999.90;999.90;;;11.00;99.90;;;;;;5041941;28;20491;-68
2023/01/13 05:45:06;;;;;;;1999.90;999.90;;;11.10;99.90;;;;;;5043381;28;20443;-70
2023/01/13 05:47:33;;;;;;;1999.90;999.90;;;11.10;99.90;;;;;;5051653;28;20435;-68
2023/01/13 05:50:00;;;;;;;1999.90;999.90;;;11.10;99.90;;;;;;5051216;28;20467;-69
2023/01/13 05:52:27;;;;;;;1999.90;999.90;;;11.10;99.90;;;;;;5051867;28;20492;-69
2023/01/13 05:54:53;;;;;;;1999.90;999.90;;;11.10;99.90;;;;;;5051492;28;20456;-68
2023/01/13 05:57:21;;;;;;;1999.90;999.90;;;11.00;99.90;;;;;;5052108;28;20479;-68
2023/01/13 05:59:48;;;;;;;1999.90;999.90;;;11.00;99.90;;;;;;5051872;28;20491;-68
2023/01/13 06:02:16;;;;;;;1999.90;999.90;;;10.90;99.90;;;;;;5031898;28;20819;-69
2023/01/13 06:04:42;;;;;;;1999.90;999.90;;;10.80;99.90;;;;;;5031851;28;20464;-69
2023/01/13 06:07:09;;;;;;;1999.90;999.90;;;10.70;99.90;;;;;;5029502;28;20846;-69
2023/01/13 06:09:36;;;;;;;1999.90;999.90;;;10.80;99.90;;;;;;5030665;28;20492;-69
2023/01/13 06:12:03;;;;;;;1999.90;999.90;;;10.80;99.90;;;;;;5026268;28;20497;-69
2023/01/13 06:14:38;;;;;;;1999.90;999.90;;;10.90;99.90;;;;;;5030952;28;20540;-69
2023/01/13 06:17:07;;;;;;;1999.90;999.90;;;10.90;99.90;;;;;;5031525;28;20519;-69
2023/01/13 06:19:35;;;;;;;1999.90;999.90;;;11.00;99.90;;;;;;5030508;28;20544;-66
2023/01/13 06:22:08;;;;;;;1999.90;999.90;;;11.00;99.90;;;;;;5030021;28;20464;-68
2023/01/13 06:24:36;;;;;;;1999.90;999.90;;;11.10;99.90;;;;;;5030909;28;20449;-68
2023/01/13 06:27:05;;;;;;;1999.90;999.90;;;11.10;99.90;;;;;;5030877;28;20528;-69
2023/01/13 06:29:32;;;;;;;1999.90;999.90;;;11.10;99.90;;;;;;5029382;28;20475;-68
2023/01/13 06:32:01;;;;;;;1999.90;999.90;;;11.10;99.90;;;;;;5046747;28;20474;-68
2023/01/13 06:34:29;;;;;;;1999.90;999.90;;;11.10;99.90;;;;;;5050490;28;20463;-66
2023/01/13 06:36:57;;;;;;;1999.90;999.90;;;11.20;99.90;;;;;;5034075;28;20473;-69
2023/01/13 06:39:26;;;;;;;1999.90;999.90;;;11.10;99.90;;;;;;5030457;28;20487;-69
2023/01/13 06:44:39;;;;;;;1999.90;999.90;;;11.10;99.90;;;;;;5030959;28;20521;-70
2023/01/13 06:47:06;;;;;;;1999.90;999.90;;;11.10;99.90;;;;;;5030503;28;20523;-69
2023/01/13 06:49:33;;;;;;;1999.90;999.90;;;11.00;99.90;;;;;;5029914;28;20493;-70
2023/01/13 06:52:02;;;;;;;1999.90;999.90;;;11.00;99.90;;;;;;5030295;28;20483;-69
2023/01/13 06:54:28;;;;;;;1999.90;999.90;;;10.90;99.90;;;;;;5030073;28;20451;-69
2023/01/13 06:56:55;;;;;;;1999.90;999.90;;;10.90;99.90;;;;;;5030292;28;20528;-69
2023/01/13 06:59:22;;;;;;;1999.90;999.90;;;10.80;99.90;;;;;;5030034;28;20473;-69
2023/01/13 07:01:49;;;;;;;1999.90;999.90;;;10.70;99.90;;;;;;5036106;28;20445;-68
2023/01/13 07:04:17;;;;;;;1999.90;999.90;;;10.70;99.90;;;;;;5030050;28;20449;-67
2023/01/13 07:06:44;;;;;;;1999.90;999.90;;;10.70;99.90;;;;;;5030056;28;20449;-68
2023/01/13 07:09:12;;;;;;;1999.90;999.90;;;10.80;99.90;;;;;;5030311;28;21017;-68
2023/01/13 07:11:39;;;;;;;1999.90;999.90;;;10.70;99.90;;;;;;5030278;28;20447;-67
2023/01/13 07:16:52;;;;;;;1999.90;999.90;;;10.80;99.90;;;;;;5033852;28;20443;-68
2023/01/13 07:19:22;;;;;;;1999.90;999.90;;;10.80;99.90;;;;;;5029026;28;20464;-67
2023/01/13 07:21:50;;;;;;;1999.90;999.90;;;10.80;99.90;;;;;;5026491;28;20480;-68
2023/01/13 07:24:19;;;;;;;1999.90;999.90;;;10.90;99.90;;;;;;5028915;28;20866;-67
2023/01/13 07:26:46;;;;;;;1999.90;999.90;;;10.90;99.90;;;;;;5028870;28;20437;-68
2023/01/13 07:29:13;;;;;;;1999.90;999.90;;;10.90;99.90;;;;;;5028370;28;20588;-68
2023/01/13 07:31:40;;;;;;;1999.90;999.90;;;10.90;99.90;;;;;;5028798;28;20441;-68
2023/01/13 07:34:07;;;;;;;1999.90;999.90;;;10.90;99.90;;;;;;5029793;28;20463;-68
2023/01/13 07:36:34;;;;;;;1999.90;999.90;;;10.90;99.90;;;;;;5029003;28;20538;-68
2023/01/13 07:39:01;;;;;;;1999.90;999.90;;;10.90;99.90;;;;;;5028632;28;20489;-67
2023/01/13 07:44:13;;;;;;;1999.90;999.90;;;10.90;99.90;;;;;;5035239;28;20518;-69
2023/01/13 07:46:41;;;;;;;1999.90;999.90;;;10.90;99.90;;;;;;5049126;28;20459;-68
2023/01/13 07:49:09;;;;;;;1999.90;999.90;;;10.90;99.90;;;;;;5047734;28;20467;-68
2023/01/13 07:51:37;;;;;;;1999.90;999.90;;;10.80;99.90;;;;;;5028064;28;20814;-68
2023/01/13 07:54:04;;;;;;;1999.90;999.90;;;10.80;99.90;;;;;;5028260;28;20453;-68
2023/01/13 07:56:32;;;;;;;1999.90;999.90;;;10.80;99.90;;;;;;5028177;28;20451;-68
2023/01/13 07:58:59;;;;;;;1999.90;999.90;;;10.90;99.90;;;;;;5028438;28;20535;-67
2023/01/13 08:01:27;;;;;;;1999.90;999.90;;;11.00;99.90;;;;;;5028962;28;20461;-68
2023/01/13 08:03:54;;;;;;;1999.90;999.90;;;11.00;99.90;;;;;;5029163;28;20556;-68
2023/01/13 08:06:22;;;;;;;1999.90;999.90;;;11.10;99.90;;;;;;5029107;28;20453;-68
2023/01/13 08:08:49;;;;;;;1999.90;999.90;;;11.20;99.90;;;;;;5028799;28;20511;-68
2023/01/13 08:11:15;;;;;;;1999.90;999.90;;;11.20;99.90;;;;;;5028867;28;20916;-70
2023/01/13 08:13:44;;;;;;;1999.90;999.90;;;11.20;99.90;;;;;;5029095;28;20445;-68
2023/01/13 08:16:13;;;;;;;1999.90;999.90;;;11.20;99.90;;;;;;5047487;28;20966;-68
2023/01/13 08:18:40;;;;;;;1999.90;999.90;;;11.30;99.90;;;;;;5048599;28;20498;-68
2023/01/13 08:21:10;;;;;;;1999.90;999.90;;;11.10;99.90;;;;;;5049013;28;20447;-68
2023/01/13 08:23:37;;;;;;;1999.90;999.90;;;11.00;99.90;;;;;;5048868;28;20447;-68
2023/01/13 08:26:06;;;;;;;1999.90;999.90;;;10.90;99.90;;;;;;5048676;28;20456;-68
2023/01/13 08:28:33;;;;;;;1999.90;999.90;;;10.90;99.90;;;;;;5048212;28;20487;-68
2023/01/13 08:31:03;;;;;;;1999.90;999.90;;;10.90;99.90;;;;;;5047050;28;20456;-68
2023/01/13 08:33:30;;;;;;;1999.90;999.90;;;10.90;99.90;;;;;;5048741;28;20459;-68
2023/01/13 08:35:57;;;;;;;1999.90;999.90;;;11.00;99.90;;;;;;5048703;28;20942;-68
2023/01/13 08:38:25;;;;;;;1999.90;999.90;;;11.00;99.90;;;;;;5048392;28;20589;-68
2023/01/13 08:40:52;;;;;;;1999.90;999.90;;;10.90;99.90;;;;;;5048807;28;20957;-68
2023/01/13 08:43:19;;;;;;;1999.90;999.90;;;10.90;99.90;;;;;;5049006;28;20444;-68
2023/01/13 08:45:46;;;;;;;1999.90;999.90;;;10.80;99.90;;;;;;5048766;28;20869;-69
2023/01/13 08:48:14;;;;;;;1999.90;999.90;;;10.70;99.90;;;;;;5031979;28;20451;-68
2023/01/13 08:50:40;;;;;;;1999.90;999.90;;;10.60;99.90;;;;;;5028740;28;20467;-68
2023/01/13 08:53:07;;;;;;;1999.90;999.90;;;10.60;99.90;;;;;;5028857;28;20441;-67
2023/01/13 08:55:34;;;;;;;1999.90;999.90;;;10.50;99.90;;;;;;5028546;28;20532;-68
2023/01/13 08:58:01;;;;;;;1999.90;999.90;;;10.50;99.90;;;;;;5028915;28;20594;-69
2023/01/13 09:00:28;;;;;;;1999.90;999.90;;;10.40;99.90;;;;;;5030083;28;20444;-67
2023/01/13 09:02:55;;;;;;;1999.90;999.90;;;10.30;99.90;;;;;;5039753;28;20452;-67
2023/01/13 09:05:23;;;;;;;1999.90;999.90;;;10.20;99.90;;;;;;5050925;28;20454;-68
2023/01/13 09:07:50;;;;;;;1999.90;999.90;;;10.10;99.90;;;;;;5052602;28;20450;-68
2023/01/13 09:10:17;;;;;;;1999.90;999.90;;;10.00;99.90;;;;;;5052048;28;20481;-67
2023/01/13 09:15:28;;;;;;;1999.90;999.90;;;9.50;99.90;;;;;;5032571;28;20587;-67
2023/01/13 09:17:55;;;;;;;1999.90;999.90;;;9.30;99.90;;;;;;5032199;28;20487;-68
2023/01/13 09:20:23;;;;;;;1999.90;999.90;;;9.20;99.90;;;;;;5031917;28;20469;-67
2023/01/13 09:22:50;;;;;;;1999.90;999.90;;;9.00;99.90;;;;;;5032199;28;20807;-68
2023/01/13 09:25:17;;;;;;;1999.90;999.90;;;8.90;99.90;;;;;;5032176;28;20544;-68
2023/01/13 09:27:43;;;;;;;1999.90;999.90;;;8.80;99.90;;;;;;5042836;28;20462;-69
2023/01/13 09:30:11;;;;;;;1999.90;999.90;;;8.80;99.90;;;;;;5051705;28;20481;-69
2023/01/13 09:32:38;;;;;;;1999.90;999.90;;;8.70;99.90;;;;;;5051964;28;20440;-69
2023/01/13 09:35:05;;;;;;;1999.90;999.90;;;8.70;99.90;;;;;;5052171;28;20491;-68
2023/01/13 09:37:36;;;;;;;1999.90;999.90;;;8.90;99.90;;;;;;5051867;28;20941;-67
2023/01/13 09:40:06;;;;;;;1999.90;999.90;;;8.90;99.90;;;;;;5051674;28;20471;-68
2023/01/13 09:45:33;;;;;;;1999.90;999.90;;;9.10;99.90;;;;;;5012237;28;20539;-68
2023/01/13 09:48:08;;;;;;;1999.90;999.90;;;9.20;99.90;;;;;;5012203;28;20448;-69
2023/01/13 09:50:48;;;;;;;1999.90;999.90;;;9.30;99.90;;;;;;5011889;28;20449;-68
2023/01/13 09:53:21;;;;;;;1999.90;999.90;;;9.50;99.90;;;;;;5012016;28;20449;-69
2023/01/13 09:55:48;;;;;;;1999.90;999.90;;;9.60;99.90;;;;;;5012144;28;20473;-68
2023/01/13 09:58:18;;;;;;;1999.90;999.90;;;9.70;99.90;;;;;;5011845;28;20473;-69
2023/01/13 10:00:53;;;;;;;1999.90;999.90;;;9.80;99.90;;;;;;5037986;28;20455;-68
2023/01/13 10:03:24;;;;;;;1999.90;999.90;;;9.80;99.90;;;;;;5011883;28;20453;-69
2023/01/13 10:05:59;;;;;;;1999.90;999.90;;;9.90;99.90;;;;;;5011606;28;20515;-68
2023/01/13 10:08:31;;;;;;;1999.90;999.90;;;9.90;99.90;;;;;;5011104;28;20469;-69
2023/01/13 10:13:12;;;;;;;1999.90;999.90;;;9.90;99.90;;;;;;5011068;28;20450;-68
2023/01/13 10:13:49;;;;;;;1999.90;999.90;;;9.90;99.90;;;;;;5011282;28;20453;-68
2023/01/13 10:16:25;;;;;;;1999.90;999.90;;;9.90;99.90;;;;;;5044775;28;20563;-70
2023/01/13 10:19:04;;;;;;;1999.90;999.90;;;9.90;99.90;;;;;;5051103;28;20487;-69
2023/01/13 10:21:54;;;;;;;1999.90;999.90;;;10.00;99.90;;;;;;5051511;28;20444;-68
2023/01/13 10:24:37;;;;;;;1999.90;999.90;;;9.90;99.90;;;;;;5051070;28;20448;-67
2023/01/13 10:27:07;;;;;;;1999.90;999.90;;;9.80;99.90;;;;;;5051210;28;20945;-67
2023/01/13 10:29:36;;;;;;;1999.90;999.90;;;9.70;99.90;;;;;;5050632;28;20468;-68
2023/01/13 10:32:03;;;;;;;1999.90;999.90;;;9.80;99.90;;;;;;5034127;28;20846;-68
2023/01/13 10:34:30;;;;;;;1999.90;999.90;;;9.90;99.90;;;;;;5031063;28;21130;-67
2023/01/13 10:37:05;;;;;;;1999.90;999.90;;;9.80;99.90;;;;;;5031177;28;20436;-68
2023/01/13 10:39:41;;;;;;;1999.90;999.90;;;9.60;99.90;;;;;;5030395;28;20491;-67
2023/01/13 10:42:14;;;;;;;1999.90;999.90;;;9.40;99.90;;;;;;5031030;28;20453;-69
2023/01/13 10:44:48;;;;;;;1999.90;999.90;;;9.30;99.90;;;;;;5031088;28;20449;-67
2023/01/13 10:47:27;;;;;;;1999.90;999.90;;;9.30;99.90;;;;;;5036722;28;20455;-67
2023/01/13 10:50:02;;;;;;;1999.90;999.90;;;9.30;99.90;;;;;;5050441;28;20459;-67
2023/01/13 10:52:30;;;;;;;1999.90;999.90;;;9.30;99.90;;;;;;5050615;28;20949;-68
2023/01/13 10:54:59;;;;;;;1999.90;999.90;;;9.30;99.90;;;;;;5050949;28;21120;-67
2023/01/13 10:57:36;;;;;;;1999.90;999.90;;;9.30;99.90;;;;;;5051315;28;20460;-67
2023/01/13 11:00:05;;;;;;;1999.90;999.90;;;9.10;99.90;;;;;;5050860;28;20570;-67
2023/01/13 11:02:34;;;;;;;1999.90;999.90;;;8.90;99.90;;;;;;5051417;28;20474;-68
2023/01/13 11:05:20;;;;;;;1999.90;999.90;;;8.70;99.90;;;;;;5049671;28;20448;-67
2023/01/13 11:07:51;;;;;;;1999.90;999.90;;;8.60;99.90;;;;;;5050806;28;20456;-68
2023/01/13 11:10:26;;;;;;;1999.90;999.90;;;8.50;99.90;;;;;;5050017;28;20984;-69
2023/01/13 11:12:59;;;;;;;1999.90;999.90;;;8.50;99.90;;;;;;5050448;28;20453;-68
2023/01/13 11:15:38;;;;;;;1999.90;999.90;;;8.40;99.90;;;;;;5050440;28;20448;-68
2023/01/13 11:18:13;;;;;;;1999.90;999.90;;;8.40;99.90;;;;;;5050059;28;20455;-68
2023/01/13 11:20:44;;;;;;;1999.90;999.90;;;8.40;99.90;;;;;;5048242;28;20989;-68
2023/01/13 11:23:16;;;;;;;1999.90;999.90;;;8.40;99.90;;;;;;5049079;28;20455;-68
2023/01/13 11:25:50;;;;;;;1999.90;999.90;;;8.50;99.90;;;;;;5050244;28;20452;-69
2023/01/13 11:28:41;;;;;;;1999.90;999.90;;;8.50;99.90;;;;;;5049800;28;20941;-67
2023/01/13 11:31:15;;;;;;;1999.90;999.90;;;8.60;99.90;;;;;;5046109;28;20459;-68
2023/01/13 11:33:48;;;;;;;1999.90;999.90;;;8.70;99.90;;;;;;5049720;28;20444;-68
2023/01/13 11:36:20;;;;;;;1999.90;999.90;;;8.70;99.90;;;;;;5048235;28;20827;-68
2023/01/13 11:38:50;;;;;;;1999.90;999.90;;;8.80;99.90;;;;;;5049206;28;20484;-68
2023/01/13 11:41:38;;;;;;;1999.90;999.90;;;8.90;99.90;;;;;;5049574;28;20945;-68
2023/01/13 11:44:16;;;;;;;1999.90;999.90;;;8.90;99.90;;;;;;5049718;28;20451;-68
2023/01/13 11:46:43;;;;;;;1999.90;999.90;;;8.90;99.90;;;;;;5049906;28;20440;-68
2023/01/13 11:49:22;;;;;;;1999.90;999.90;;;9.00;99.90;;;;;;5049462;28;20460;-67
2023/01/13 11:51:54;;;;;;;1999.90;999.90;;;8.90;99.90;;;;;;5041816;28;20457;-68
2023/01/13 11:54:41;;;;;;;1999.90;999.90;;;8.90;99.90;;;;;;5030033;28;20456;-68
2023/01/13 11:57:28;;;;;;;1999.90;999.90;;;9.00;99.90;;;;;;5029689;28;20828;-68
2023/01/13 12:00:16;;;;;;;1999.90;999.90;;;9.10;99.90;;;;;;5029041;28;20496;-67
2023/01/13 12:02:53;;;;;;;1999.90;999.90;;;9.20;99.90;;;;;;5009471;28;20880;-67
2023/01/13 12:05:27;;;;;;;1999.90;999.90;;;9.20;99.90;;;;;;5009483;28;20454;-68
2023/01/13 12:08:04;;;;;;;1999.90;999.90;;;9.20;99.90;;;;;;5009332;28;20440;-67
2023/01/13 12:10:42;;;;;;;1999.90;999.90;;;9.30;99.90;;;;;;5009116;28;20967;-68
2023/01/13 12:13:23;;;;;;;1999.90;999.90;;;9.40;99.90;;;;;;5009748;28;20434;-68
2023/01/13 12:16:14;;;;;;;1999.90;999.90;;;9.40;99.90;;;;;;5041307;28;20451;-68
2023/01/13 12:19:06;;;;;;;1999.90;999.90;;;9.60;99.90;;;;;;5048793;28;20491;-68
2023/01/13 12:21:37;;;;;;;1999.90;999.90;;;9.60;99.90;;;;;;5049151;28;20439;-68
2023/01/13 12:24:13;;;;;;;1999.90;999.90;;;9.70;99.90;;;;;;5049131;28;20701;-68
2023/01/13 12:26:44;;;;;;;1999.90;999.90;;;9.60;99.90;;;;;;5048884;28;21154;-68
2023/01/13 12:29:17;;;;;;;1999.90;999.90;;;9.70;99.90;;;;;;5048620;28;20471;-67
2023/01/13 12:31:45;;;;;;;1999.90;999.90;;;9.90;99.90;;;;;;5036196;28;20453;-69
2023/01/13 12:34:44;;;;;;;1999.90;999.90;;;10.00;99.90;;;;;;5029004;28;20471;-68
2023/01/13 12:37:16;;;;;;;1999.90;999.90;;;10.10;99.90;;;;;;5020529;28;20456;-68
2023/01/13 12:39:56;;;;;;;1999.90;999.90;;;10.30;99.90;;;;;;5028409;28;20483;-68
2023/01/13 12:45:28;;;;;;;1999.90;999.90;;;10.20;99.90;;;;;;5028999;28;20420;-68
2023/01/13 12:47:56;;;;;;;1999.90;999.90;;;10.10;99.90;;;;;;5027805;28;20445;-67
2023/01/13 12:50:42;;;;;;;1999.90;999.90;;;10.10;99.90;;;;;;5027439;28;20471;-67
2023/01/13 12:53:32;;;;;;;1999.90;999.90;;;10.20;99.90;;;;;;5027249;28;20447;-68
2023/01/13 12:56:21;;;;;;;1999.90;999.90;;;10.20;99.90;;;;;;5026715;28;20455;-68
2023/01/13 12:58:48;;;;;;;1999.90;999.90;;;10.20;99.90;;;;;;5024932;28;20485;-68
2023/01/13 13:01:17;;;;;;;1999.90;999.90;;;10.20;99.90;;;;;;5024578;28;20440;-69
2023/01/13 13:04:08;;;;;;;1999.90;999.90;;;10.30;99.90;;;;;;5027544;28;20519;-68
2023/01/13 13:06:39;;;;;;;1999.90;999.90;;;10.40;99.90;;;;;;5016736;28;20453;-67